createdAt,value
2022-12-12T00:18:41.633Z,0
2022-12-12T00:48:48.000Z,0.0
2022-12-12T01:18:51.000Z,0.0
2022-12-12T01:48:54.000Z,0.0
2022-12-12T02:18:58.000Z,0.0
2022-12-12T02:48:59.000Z,0.0
2022-12-12T03:19:05.000Z,0.0
2022-12-12T03:49:06.432Z,0
2022-12-12T04:19:14.000Z,0.0
2022-12-12T04:49:21.000Z,0.0
2022-12-12T05:19:32.000Z,0.0
2022-12-12T05:49:37.000Z,0.0
2022-12-12T06:19:45.000Z,0.0
2022-12-12T06:49:49.000Z,0.0
2022-12-12T07:19:57.000Z,4.0
2022-12-12T07:50:00.000Z,18.0
2022-12-12T08:20:02.000Z,47.0
2022-12-12T08:50:07.400Z,50
2022-12-12T09:20:11.000Z,43.0
2022-12-12T09:50:18.000Z,36.0
2022-12-12T10:20:22.000Z,38.0
2022-12-12T10:50:28.000Z,38.0
2022-12-12T11:20:33.000Z,37.0
2022-12-12T11:50:35.000Z,38.0
2022-12-12T12:20:40.000Z,36.0
2022-12-12T12:48:00.000Z,33.0
2022-12-12T13:18:12.000Z,26.0
2022-12-12T13:40:46.000Z,23.0
2022-12-12T13:40:56.000Z,23.0
2022-12-12T13:53:05.000Z,22.0
2022-12-12T14:23:09.000Z,17.0
2022-12-12T14:53:23.000Z,12.0
2022-12-12T15:23:26.000Z,6.0
2022-12-12T15:53:38.886Z,1
2022-12-12T16:23:46.000Z,1.0
2022-12-12T16:53:49.000Z,1.0
2022-12-12T17:24:01.000Z,1.0
2022-12-12T17:24:11.000Z,1.0
2022-12-12T17:24:21.000Z,1.0
2022-12-12T17:24:32.000Z,1.0
2022-12-12T17:24:42.000Z,1.0
2022-12-12T17:24:52.000Z,1.0
2022-12-12T17:25:03.000Z,1.0
2022-12-12T17:25:13.000Z,1.0
2022-12-12T17:25:24.000Z,1.0
2022-12-12T17:25:34.000Z,1.0
2022-12-12T17:25:45.000Z,1.0
2022-12-12T17:25:55.000Z,1.0
2022-12-12T17:26:05.000Z,1.0
2022-12-12T17:26:16.000Z,1.0
2022-12-12T17:26:26.000Z,2.0
2022-12-12T17:26:37.000Z,2.0
2022-12-12T17:26:47.000Z,2.0
2022-12-12T18:13:26.000Z,2.0
2022-12-12T18:43:27.570Z,1
2022-12-12T19:13:29.000Z,2.0
2022-12-12T19:43:31.445Z,1
2022-12-12T20:13:33.000Z,2.0
2022-12-12T20:43:36.000Z,1.0
2022-12-12T21:13:38.000Z,1.0
2022-12-12T21:43:39.000Z,2.0
2022-12-12T22:13:42.000Z,1.0
2022-12-12T22:43:45.000Z,1.0
2022-12-12T23:13:46.000Z,1.0
2022-12-12T23:43:56.000Z,1.0
